sensor_id;sensor_type;location;lat;lon;timestamp;temperature;humidity
5723;DHT22;2886;49.722;8.612;2022-08-25T00:01:27;25.40;49.70
5723;DHT22;2886;49.722;8.612;2022-08-25T00:03:53;25.40;50.00
5723;DHT22;2886;49.722;8.612;2022-08-25T00:06:20;25.40;50.20
5723;DHT22;2886;49.722;8.612;2022-08-25T00:08:46;25.30;50.40
5723;DHT22;2886;49.722;8.612;2022-08-25T00:11:16;25.30;50.60
5723;DHT22;2886;49.722;8.612;2022-08-25T00:13:45;25.30;51.00
5723;DHT22;2886;49.722;8.612;2022-08-25T00:16:13;25.20;51.00
5723;DHT22;2886;49.722;8.612;2022-08-25T00:18:41;25.20;51.50
5723;DHT22;2886;49.722;8.612;2022-08-25T00:21:07;25.20;52.10
5723;DHT22;2886;49.722;8.612;2022-08-25T00:23:33;25.10;52.40
5723;DHT22;2886;49.722;8.612;2022-08-25T00:26:00;25.10;53.00
5723;DHT22;2886;49.722;8.612;2022-08-25T00:28:26;25.10;53.40
5723;DHT22;2886;49.722;8.612;2022-08-25T00:30:54;25.00;53.90
5723;DHT22;2886;49.722;8.612;2022-08-25T00:33:20;25.00;54.10
5723;DHT22;2886;49.722;8.612;2022-08-25T00:35:46;24.90;54.50
5723;DHT22;2886;49.722;8.612;2022-08-25T00:38:12;24.90;54.90
5723;DHT22;2886;49.722;8.612;2022-08-25T00:40:40;24.90;55.30
5723;DHT22;2886;49.722;8.612;2022-08-25T00:43:07;24.90;55.30
5723;DHT22;2886;49.722;8.612;2022-08-25T00:45:34;24.80;55.20
5723;DHT22;2886;49.722;8.612;2022-08-25T00:48:00;24.80;55.30
5723;DHT22;2886;49.722;8.612;2022-08-25T00:50:28;24.80;55.10
5723;DHT22;2886;49.722;8.612;2022-08-25T00:52:56;24.70;54.80
5723;DHT22;2886;49.722;8.612;2022-08-25T00:55:33;24.70;55.10
5723;DHT22;2886;49.722;8.612;2022-08-25T00:58:21;24.60;55.10
5723;DHT22;2886;49.722;8.612;2022-08-25T01:00:51;24.60;55.50
5723;DHT22;2886;49.722;8.612;2022-08-25T01:03:19;24.60;55.50
5723;DHT22;2886;49.722;8.612;2022-08-25T01:05:46;24.60;56.00
5723;DHT22;2886;49.722;8.612;2022-08-25T01:08:13;24.50;56.60
5723;DHT22;2886;49.722;8.612;2022-08-25T01:10:42;24.50;57.20
5723;DHT22;2886;49.722;8.612;2022-08-25T01:13:34;24.40;57.80
5723;DHT22;2886;49.722;8.612;2022-08-25T01:16:02;24.40;58.40
5723;DHT22;2886;49.722;8.612;2022-08-25T01:18:28;24.30;58.50
5723;DHT22;2886;49.722;8.612;2022-08-25T01:20:55;24.30;59.20
5723;DHT22;2886;49.722;8.612;2022-08-25T01:23:21;24.20;60.20
5723;DHT22;2886;49.722;8.612;2022-08-25T01:26:03;24.10;58.40
5723;DHT22;2886;49.722;8.612;2022-08-25T01:28:30;24.10;60.20
5723;DHT22;2886;49.722;8.612;2022-08-25T01:30:56;23.90;59.30
5723;DHT22;2886;49.722;8.612;2022-08-25T01:33:21;23.80;58.20
5723;DHT22;2886;49.722;8.612;2022-08-25T01:35:47;23.70;58.80
5723;DHT22;2886;49.722;8.612;2022-08-25T01:38:13;23.50;59.70
5723;DHT22;2886;49.722;8.612;2022-08-25T01:40:40;23.40;62.30
5723;DHT22;2886;49.722;8.612;2022-08-25T01:45:38;23.20;62.80
5723;DHT22;2886;49.722;8.612;2022-08-25T01:48:05;23.20;64.10
5723;DHT22;2886;49.722;8.612;2022-08-25T01:50:32;23.10;65.20
5723;DHT22;2886;49.722;8.612;2022-08-25T01:55:27;22.90;67.60
5723;DHT22;2886;49.722;8.612;2022-08-25T01:57:54;22.80;68.00
5723;DHT22;2886;49.722;8.612;2022-08-25T02:00:21;22.80;70.10
5723;DHT22;2886;49.722;8.612;2022-08-25T02:02:47;22.70;70.10
5723;DHT22;2886;49.722;8.612;2022-08-25T02:05:14;22.70;70.80
5723;DHT22;2886;49.722;8.612;2022-08-25T02:07:42;22.60;71.20
5723;DHT22;2886;49.722;8.612;2022-08-25T02:10:09;22.50;71.30
5723;DHT22;2886;49.722;8.612;2022-08-25T02:12:37;22.50;73.00
5723;DHT22;2886;49.722;8.612;2022-08-25T02:15:06;22.40;74.10
5723;DHT22;2886;49.722;8.612;2022-08-25T02:17:33;22.30;74.30
5723;DHT22;2886;49.722;8.612;2022-08-25T02:20:02;22.20;74.80
5723;DHT22;2886;49.722;8.612;2022-08-25T02:22:28;22.20;76.10
5723;DHT22;2886;49.722;8.612;2022-08-25T02:24:54;22.10;76.90
5723;DHT22;2886;49.722;8.612;2022-08-25T02:27:19;22.10;77.60
5723;DHT22;2886;49.722;8.612;2022-08-25T02:29:45;22.10;77.80
5723;DHT22;2886;49.722;8.612;2022-08-25T02:32:12;22.00;77.90
5723;DHT22;2886;49.722;8.612;2022-08-25T02:34:38;22.00;78.40
5723;DHT22;2886;49.722;8.612;2022-08-25T02:37:06;21.90;78.40
5723;DHT22;2886;49.722;8.612;2022-08-25T02:39:33;21.90;79.80
5723;DHT22;2886;49.722;8.612;2022-08-25T02:41:58;21.90;82.40
5723;DHT22;2886;49.722;8.612;2022-08-25T02:44:24;21.80;82.90
5723;DHT22;2886;49.722;8.612;2022-08-25T02:46:50;21.80;82.80
5723;DHT22;2886;49.722;8.612;2022-08-25T02:49:15;21.80;82.70
5723;DHT22;2886;49.722;8.612;2022-08-25T02:51:43;21.70;83.30
5723;DHT22;2886;49.722;8.612;2022-08-25T02:54:08;21.60;84.20
5723;DHT22;2886;49.722;8.612;2022-08-25T02:56:34;21.60;84.90
5723;DHT22;2886;49.722;8.612;2022-08-25T02:59:00;21.50;84.90
5723;DHT22;2886;49.722;8.612;2022-08-25T03:01:27;21.50;85.10
5723;DHT22;2886;49.722;8.612;2022-08-25T03:03:53;21.40;85.40
5723;DHT22;2886;49.722;8.612;2022-08-25T03:06:20;21.30;85.50
5723;DHT22;2886;49.722;8.612;2022-08-25T03:08:48;21.20;85.40
5723;DHT22;2886;49.722;8.612;2022-08-25T03:11:14;21.20;85.40
5723;DHT22;2886;49.722;8.612;2022-08-25T03:13:40;21.10;85.00
5723;DHT22;2886;49.722;8.612;2022-08-25T03:16:07;21.10;85.10
5723;DHT22;2886;49.722;8.612;2022-08-25T03:18:35;21.10;85.50
5723;DHT22;2886;49.722;8.612;2022-08-25T03:21:00;21.00;85.90
5723;DHT22;2886;49.722;8.612;2022-08-25T03:23:28;20.90;85.70
5723;DHT22;2886;49.722;8.612;2022-08-25T03:25:54;20.90;86.00
5723;DHT22;2886;49.722;8.612;2022-08-25T03:28:38;20.90;86.60
5723;DHT22;2886;49.722;8.612;2022-08-25T03:31:06;20.80;86.40
5723;DHT22;2886;49.722;8.612;2022-08-25T03:33:33;20.80;87.10
5723;DHT22;2886;49.722;8.612;2022-08-25T03:35:58;20.70;87.50
5723;DHT22;2886;49.722;8.612;2022-08-25T03:38:25;20.70;87.80
5723;DHT22;2886;49.722;8.612;2022-08-25T03:40:51;20.70;87.40
5723;DHT22;2886;49.722;8.612;2022-08-25T03:43:18;20.60;87.70
5723;DHT22;2886;49.722;8.612;2022-08-25T03:45:44;20.50;88.30
5723;DHT22;2886;49.722;8.612;2022-08-25T03:48:11;20.50;88.70
5723;DHT22;2886;49.722;8.612;2022-08-25T03:50:43;20.40;89.10
5723;DHT22;2886;49.722;8.612;2022-08-25T03:53:09;20.40;90.00
5723;DHT22;2886;49.722;8.612;2022-08-25T03:55:35;20.30;90.50
5723;DHT22;2886;49.722;8.612;2022-08-25T03:58:01;20.20;90.50
5723;DHT22;2886;49.722;8.612;2022-08-25T04:00:26;20.30;90.80
5723;DHT22;2886;49.722;8.612;2022-08-25T04:02:52;20.20;91.00
5723;DHT22;2886;49.722;8.612;2022-08-25T04:05:18;20.20;91.10
5723;DHT22;2886;49.722;8.612;2022-08-25T04:07:44;20.20;91.20
5723;DHT22;2886;49.722;8.612;2022-08-25T04:10:10;20.20;91.10
5723;DHT22;2886;49.722;8.612;2022-08-25T04:12:37;20.10;90.90
5723;DHT22;2886;49.722;8.612;2022-08-25T04:15:07;20.10;91.20
5723;DHT22;2886;49.722;8.612;2022-08-25T04:17:35;20.00;91.50
5723;DHT22;2886;49.722;8.612;2022-08-25T04:20:02;20.00;91.70
5723;DHT22;2886;49.722;8.612;2022-08-25T04:22:28;20.00;91.90
5723;DHT22;2886;49.722;8.612;2022-08-25T04:24:56;20.00;92.00
5723;DHT22;2886;49.722;8.612;2022-08-25T04:27:22;19.90;92.20
5723;DHT22;2886;49.722;8.612;2022-08-25T04:29:48;19.90;92.30
5723;DHT22;2886;49.722;8.612;2022-08-25T04:32:13;19.90;92.60
5723;DHT22;2886;49.722;8.612;2022-08-25T04:34:39;19.90;93.00
5723;DHT22;2886;49.722;8.612;2022-08-25T04:37:06;19.80;93.40
5723;DHT22;2886;49.722;8.612;2022-08-25T04:39:32;19.80;93.50
5723;DHT22;2886;49.722;8.612;2022-08-25T04:41:59;19.80;93.70
5723;DHT22;2886;49.722;8.612;2022-08-25T04:44:25;19.80;94.00
5723;DHT22;2886;49.722;8.612;2022-08-25T04:46:51;19.80;94.00
5723;DHT22;2886;49.722;8.612;2022-08-25T04:49:16;19.80;94.40
5723;DHT22;2886;49.722;8.612;2022-08-25T04:51:43;19.70;94.50
5723;DHT22;2886;49.722;8.612;2022-08-25T04:54:12;19.70;95.00
5723;DHT22;2886;49.722;8.612;2022-08-25T04:56:42;19.70;94.90
5723;DHT22;2886;49.722;8.612;2022-08-25T04:59:11;19.70;94.80
5723;DHT22;2886;49.722;8.612;2022-08-25T05:01:39;19.70;95.20
5723;DHT22;2886;49.722;8.612;2022-08-25T05:04:06;19.70;95.30
5723;DHT22;2886;49.722;8.612;2022-08-25T05:06:32;19.60;95.60
5723;DHT22;2886;49.722;8.612;2022-08-25T05:08:58;19.70;95.90
5723;DHT22;2886;49.722;8.612;2022-08-25T05:11:32;19.70;95.80
5723;DHT22;2886;49.722;8.612;2022-08-25T05:14:00;19.70;95.70
5723;DHT22;2886;49.722;8.612;2022-08-25T05:16:27;19.70;95.60
5723;DHT22;2886;49.722;8.612;2022-08-25T05:18:53;19.70;95.50
5723;DHT22;2886;49.722;8.612;2022-08-25T05:21:22;19.70;95.50
5723;DHT22;2886;49.722;8.612;2022-08-25T05:23:49;19.80;95.70
5723;DHT22;2886;49.722;8.612;2022-08-25T05:26:18;19.80;95.90
5723;DHT22;2886;49.722;8.612;2022-08-25T05:28:45;19.80;96.00
5723;DHT22;2886;49.722;8.612;2022-08-25T05:31:12;19.80;96.10
5723;DHT22;2886;49.722;8.612;2022-08-25T05:33:39;19.80;96.00
5723;DHT22;2886;49.722;8.612;2022-08-25T05:36:06;19.80;95.90
5723;DHT22;2886;49.722;8.612;2022-08-25T05:38:32;19.90;95.90
5723;DHT22;2886;49.722;8.612;2022-08-25T05:41:01;19.90;96.00
5723;DHT22;2886;49.722;8.612;2022-08-25T05:43:28;19.90;96.10
5723;DHT22;2886;49.722;8.612;2022-08-25T05:45:55;19.90;96.10
5723;DHT22;2886;49.722;8.612;2022-08-25T05:48:22;20.00;96.20
5723;DHT22;2886;49.722;8.612;2022-08-25T05:50:59;20.00;96.30
5723;DHT22;2886;49.722;8.612;2022-08-25T05:53:26;20.00;96.50
5723;DHT22;2886;49.722;8.612;2022-08-25T05:55:53;20.10;96.40
5723;DHT22;2886;49.722;8.612;2022-08-25T05:58:20;20.10;97.00
5723;DHT22;2886;49.722;8.612;2022-08-25T06:00:46;20.20;97.10
5723;DHT22;2886;49.722;8.612;2022-08-25T06:03:12;20.20;97.10
5723;DHT22;2886;49.722;8.612;2022-08-25T06:05:37;20.20;97.50
5723;DHT22;2886;49.722;8.612;2022-08-25T06:08:03;20.30;97.90
5723;DHT22;2886;49.722;8.612;2022-08-25T06:10:29;20.30;98.30
5723;DHT22;2886;49.722;8.612;2022-08-25T06:12:55;20.40;99.30
5723;DHT22;2886;49.722;8.612;2022-08-25T06:15:22;20.50;99.70
5723;DHT22;2886;49.722;8.612;2022-08-25T06:17:49;20.50;99.90
5723;DHT22;2886;49.722;8.612;2022-08-25T06:20:21;20.80;99.90
5723;DHT22;2886;49.722;8.612;2022-08-25T06:22:48;21.20;99.90
5723;DHT22;2886;49.722;8.612;2022-08-25T06:25:17;21.50;99.80
5723;DHT22;2886;49.722;8.612;2022-08-25T06:27:43;21.70;98.80
5723;DHT22;2886;49.722;8.612;2022-08-25T06:30:12;21.90;98.20
5723;DHT22;2886;49.722;8.612;2022-08-25T06:32:40;21.90;98.40
5723;DHT22;2886;49.722;8.612;2022-08-25T06:35:08;21.90;98.40
5723;DHT22;2886;49.722;8.612;2022-08-25T06:37:35;21.90;98.50
5723;DHT22;2886;49.722;8.612;2022-08-25T06:40:02;22.00;98.80
5723;DHT22;2886;49.722;8.612;2022-08-25T06:42:28;22.10;99.60
5723;DHT22;2886;49.722;8.612;2022-08-25T06:44:54;22.20;99.70
5723;DHT22;2886;49.722;8.612;2022-08-25T06:47:19;22.20;98.80
5723;DHT22;2886;49.722;8.612;2022-08-25T06:49:45;22.30;98.20
5723;DHT22;2886;49.722;8.612;2022-08-25T06:52:11;22.40;97.70
5723;DHT22;2886;49.722;8.612;2022-08-25T06:54:37;22.50;96.50
5723;DHT22;2886;49.722;8.612;2022-08-25T06:57:04;22.70;95.90
5723;DHT22;2886;49.722;8.612;2022-08-25T06:59:32;22.80;95.70
5723;DHT22;2886;49.722;8.612;2022-08-25T07:01:58;22.90;94.90
5723;DHT22;2886;49.722;8.612;2022-08-25T07:04:24;23.00;94.30
5723;DHT22;2886;49.722;8.612;2022-08-25T07:06:49;23.20;93.20
5723;DHT22;2886;49.722;8.612;2022-08-25T07:09:15;23.30;92.60
5723;DHT22;2886;49.722;8.612;2022-08-25T07:11:42;23.50;91.60
5723;DHT22;2886;49.722;8.612;2022-08-25T07:14:10;23.60;90.20
5723;DHT22;2886;49.722;8.612;2022-08-25T07:16:37;23.80;88.00
5723;DHT22;2886;49.722;8.612;2022-08-25T07:19:04;23.90;87.30
5723;DHT22;2886;49.722;8.612;2022-08-25T07:21:34;24.10;85.10
5723;DHT22;2886;49.722;8.612;2022-08-25T07:24:02;24.20;84.60
5723;DHT22;2886;49.722;8.612;2022-08-25T07:26:31;24.30;83.00
5723;DHT22;2886;49.722;8.612;2022-08-25T07:28:59;24.50;81.40
5723;DHT22;2886;49.722;8.612;2022-08-25T07:31:25;24.60;79.70
5723;DHT22;2886;49.722;8.612;2022-08-25T07:33:51;24.80;76.60
5723;DHT22;2886;49.722;8.612;2022-08-25T07:36:35;24.90;75.70
5723;DHT22;2886;49.722;8.612;2022-08-25T07:39:02;25.10;73.20
5723;DHT22;2886;49.722;8.612;2022-08-25T07:41:31;25.30;72.80
5723;DHT22;2886;49.722;8.612;2022-08-25T07:44:00;25.50;69.60
5723;DHT22;2886;49.722;8.612;2022-08-25T07:46:26;25.80;67.20
5723;DHT22;2886;49.722;8.612;2022-08-25T07:48:52;26.00;63.50
5723;DHT22;2886;49.722;8.612;2022-08-25T07:51:17;26.10;62.20
5723;DHT22;2886;49.722;8.612;2022-08-25T07:53:43;26.20;60.90
5723;DHT22;2886;49.722;8.612;2022-08-25T07:56:14;26.40;58.90
5723;DHT22;2886;49.722;8.612;2022-08-25T07:58:41;26.40;58.30
5723;DHT22;2886;49.722;8.612;2022-08-25T08:01:13;26.50;57.40
5723;DHT22;2886;49.722;8.612;2022-08-25T08:03:39;26.30;57.20
5723;DHT22;2886;49.722;8.612;2022-08-25T08:06:10;26.40;57.20
5723;DHT22;2886;49.722;8.612;2022-08-25T08:08:38;26.50;55.90
5723;DHT22;2886;49.722;8.612;2022-08-25T08:11:04;26.70;55.90
5723;DHT22;2886;49.722;8.612;2022-08-25T08:13:30;26.70;54.90
5723;DHT22;2886;49.722;8.612;2022-08-25T08:15:57;26.80;54.50
5723;DHT22;2886;49.722;8.612;2022-08-25T08:18:22;27.10;54.00
5723;DHT22;2886;49.722;8.612;2022-08-25T08:20:48;27.40;51.50
5723;DHT22;2886;49.722;8.612;2022-08-25T08:23:17;27.60;51.20
5723;DHT22;2886;49.722;8.612;2022-08-25T08:25:43;27.80;49.50
5723;DHT22;2886;49.722;8.612;2022-08-25T08:28:08;28.00;49.00
5723;DHT22;2886;49.722;8.612;2022-08-25T08:30:35;28.20;48.80
5723;DHT22;2886;49.722;8.612;2022-08-25T08:33:01;28.40;47.30
5723;DHT22;2886;49.722;8.612;2022-08-25T08:35:26;28.70;46.10
5723;DHT22;2886;49.722;8.612;2022-08-25T08:37:52;28.80;45.70
5723;DHT22;2886;49.722;8.612;2022-08-25T08:40:19;29.00;45.60
5723;DHT22;2886;49.722;8.612;2022-08-25T08:43:02;29.10;43.80
5723;DHT22;2886;49.722;8.612;2022-08-25T08:46:03;29.20;43.00
5723;DHT22;2886;49.722;8.612;2022-08-25T08:51:22;29.40;43.20
5723;DHT22;2886;49.722;8.612;2022-08-25T08:54:00;29.50;43.10
5723;DHT22;2886;49.722;8.612;2022-08-25T08:56:41;29.60;42.70
5723;DHT22;2886;49.722;8.612;2022-08-25T08:59:32;29.80;42.00
5723;DHT22;2886;49.722;8.612;2022-08-25T09:02:13;29.80;42.00
5723;DHT22;2886;49.722;8.612;2022-08-25T09:04:45;29.50;42.70
5723;DHT22;2886;49.722;8.612;2022-08-25T09:07:20;29.40;43.10
5723;DHT22;2886;49.722;8.612;2022-08-25T09:09:48;29.60;42.80
5723;DHT22;2886;49.722;8.612;2022-08-25T09:15:16;30.10;41.00
5723;DHT22;2886;49.722;8.612;2022-08-25T09:18:04;30.10;40.30
5723;DHT22;2886;49.722;8.612;2022-08-25T09:20:53;30.20;39.80
5723;DHT22;2886;49.722;8.612;2022-08-25T09:26:28;30.30;40.10
5723;DHT22;2886;49.722;8.612;2022-08-25T09:29:06;30.50;39.90
5723;DHT22;2886;49.722;8.612;2022-08-25T09:31:36;30.40;39.30
5723;DHT22;2886;49.722;8.612;2022-08-25T09:34:06;30.20;40.00
5723;DHT22;2886;49.722;8.612;2022-08-25T09:36:32;30.30;39.70
5723;DHT22;2886;49.722;8.612;2022-08-25T09:38:59;30.70;38.80
5723;DHT22;2886;49.722;8.612;2022-08-25T09:41:45;31.00;37.80
5723;DHT22;2886;49.722;8.612;2022-08-25T09:44:30;31.20;37.60
5723;DHT22;2886;49.722;8.612;2022-08-25T09:50:03;31.00;37.40
5723;DHT22;2886;49.722;8.612;2022-08-25T09:52:37;31.20;37.60
5723;DHT22;2886;49.722;8.612;2022-08-25T09:57:43;31.40;35.40
5723;DHT22;2886;49.722;8.612;2022-08-25T10:00:31;30.90;35.60
5723;DHT22;2886;49.722;8.612;2022-08-25T10:03:11;31.00;35.90
5723;DHT22;2886;49.722;8.612;2022-08-25T10:08:35;30.90;36.60
5723;DHT22;2886;49.722;8.612;2022-08-25T10:11:13;31.00;36.10
5723;DHT22;2886;49.722;8.612;2022-08-25T10:13:49;31.30;35.40
5723;DHT22;2886;49.722;8.612;2022-08-25T10:16:30;31.40;35.50
5723;DHT22;2886;49.722;8.612;2022-08-25T10:19:04;31.50;35.40
5723;DHT22;2886;49.722;8.612;2022-08-25T10:21:30;31.60;35.20
5723;DHT22;2886;49.722;8.612;2022-08-25T10:23:56;31.60;35.40
5723;DHT22;2886;49.722;8.612;2022-08-25T10:27:14;31.80;35.20
5723;DHT22;2886;49.722;8.612;2022-08-25T10:33:08;32.10;34.30
5723;DHT22;2886;49.722;8.612;2022-08-25T10:46:59;31.40;36.20
5723;DHT22;2886;49.722;8.612;2022-08-25T10:49:37;31.80;35.70
5723;DHT22;2886;49.722;8.612;2022-08-25T10:52:15;32.10;35.00
5723;DHT22;2886;49.722;8.612;2022-08-25T10:55:00;32.10;34.30
5723;DHT22;2886;49.722;8.612;2022-08-25T10:57:31;32.10;34.50
5723;DHT22;2886;49.722;8.612;2022-08-25T11:00:08;32.10;35.00
5723;DHT22;2886;49.722;8.612;2022-08-25T11:05:57;32.20;34.80
5723;DHT22;2886;49.722;8.612;2022-08-25T11:08:41;32.60;33.90
5723;DHT22;2886;49.722;8.612;2022-08-25T11:11:23;32.70;33.70
5723;DHT22;2886;49.722;8.612;2022-08-25T11:14:04;32.60;33.80
5723;DHT22;2886;49.722;8.612;2022-08-25T11:16:43;32.50;33.40
5723;DHT22;2886;49.722;8.612;2022-08-25T11:19:19;32.00;34.50
5723;DHT22;2886;49.722;8.612;2022-08-25T11:25:25;31.50;35.90
5723;DHT22;2886;49.722;8.612;2022-08-25T11:27:32;31.50;35.90
5723;DHT22;2886;49.722;8.612;2022-08-25T11:30:06;31.80;35.40
5723;DHT22;2886;49.722;8.612;2022-08-25T11:32:34;32.00;35.10
5723;DHT22;2886;49.722;8.612;2022-08-25T11:35:03;32.00;34.90
5723;DHT22;2886;49.722;8.612;2022-08-25T11:37:30;31.90;35.00
5723;DHT22;2886;49.722;8.612;2022-08-25T11:51:28;30.70;37.20
5723;DHT22;2886;49.722;8.612;2022-08-25T11:56:41;31.00;36.60
5723;DHT22;2886;49.722;8.612;2022-08-25T11:59:07;31.20;36.20
5723;DHT22;2886;49.722;8.612;2022-08-25T12:18:13;31.80;36.00
5723;DHT22;2886;49.722;8.612;2022-08-25T12:29:31;30.90;36.60
5723;DHT22;2886;49.722;8.612;2022-08-25T12:37:22;30.60;37.70
5723;DHT22;2886;49.722;8.612;2022-08-25T12:47:51;30.30;38.40
5723;DHT22;2886;49.722;8.612;2022-08-25T12:53:13;30.40;38.00
5723;DHT22;2886;49.722;8.612;2022-08-25T12:55:45;30.30;38.00
5723;DHT22;2886;49.722;8.612;2022-08-25T12:58:11;30.20;38.00
5723;DHT22;2886;49.722;8.612;2022-08-25T13:10:49;30.10;37.70
5723;DHT22;2886;49.722;8.612;2022-08-25T13:13:49;30.10;37.70
5723;DHT22;2886;49.722;8.612;2022-08-25T13:16:19;30.00;38.20
5723;DHT22;2886;49.722;8.612;2022-08-25T13:18:45;30.10;38.20
5723;DHT22;2886;49.722;8.612;2022-08-25T13:21:17;30.20;38.70
5723;DHT22;2886;49.722;8.612;2022-08-25T13:23:49;30.20;38.60
5723;DHT22;2886;49.722;8.612;2022-08-25T13:26:39;30.30;37.80
5723;DHT22;2886;49.722;8.612;2022-08-25T13:31:32;30.10;38.00
5723;DHT22;2886;49.722;8.612;2022-08-25T13:34:07;30.00;38.10
5723;DHT22;2886;49.722;8.612;2022-08-25T13:36:43;30.00;37.80
5723;DHT22;2886;49.722;8.612;2022-08-25T13:39:29;30.10;37.30
5723;DHT22;2886;49.722;8.612;2022-08-25T13:41:58;30.30;37.40
5723;DHT22;2886;49.722;8.612;2022-08-25T13:44:27;30.40;37.00
5723;DHT22;2886;49.722;8.612;2022-08-25T13:49:40;30.60;36.70
5723;DHT22;2886;49.722;8.612;2022-08-25T13:52:07;30.80;36.80
5723;DHT22;2886;49.722;8.612;2022-08-25T13:54:41;31.00;36.20
5723;DHT22;2886;49.722;8.612;2022-08-25T13:57:20;31.10;35.50
5723;DHT22;2886;49.722;8.612;2022-08-25T13:59:53;31.30;35.90
5723;DHT22;2886;49.722;8.612;2022-08-25T14:02:40;31.60;34.90
5723;DHT22;2886;49.722;8.612;2022-08-25T14:05:07;31.90;34.10
5723;DHT22;2886;49.722;8.612;2022-08-25T14:07:32;31.90;32.60
5723;DHT22;2886;49.722;8.612;2022-08-25T14:15:36;31.70;33.40
5723;DHT22;2886;49.722;8.612;2022-08-25T14:18:19;31.90;33.00
5723;DHT22;2886;49.722;8.612;2022-08-25T14:20:49;32.10;32.80
5723;DHT22;2886;49.722;8.612;2022-08-25T14:23:21;32.20;32.50
5723;DHT22;2886;49.722;8.612;2022-08-25T14:25:49;32.10;32.50
5723;DHT22;2886;49.722;8.612;2022-08-25T14:28:19;31.80;33.20
5723;DHT22;2886;49.722;8.612;2022-08-25T14:30:49;31.90;33.30
5723;DHT22;2886;49.722;8.612;2022-08-25T14:33:22;31.80;33.40
5723;DHT22;2886;49.722;8.612;2022-08-25T14:35:50;32.00;32.90
5723;DHT22;2886;49.722;8.612;2022-08-25T14:38:18;32.10;32.70
5723;DHT22;2886;49.722;8.612;2022-08-25T14:40:44;32.10;32.40
5723;DHT22;2886;49.722;8.612;2022-08-25T14:43:10;32.00;32.60
5723;DHT22;2886;49.722;8.612;2022-08-25T14:45:39;31.80;32.70
5723;DHT22;2886;49.722;8.612;2022-08-25T14:48:13;31.70;33.00
5723;DHT22;2886;49.722;8.612;2022-08-25T14:50:39;31.60;33.20
5723;DHT22;2886;49.722;8.612;2022-08-25T14:53:06;31.50;33.40
5723;DHT22;2886;49.722;8.612;2022-08-25T14:55:32;31.40;33.50
5723;DHT22;2886;49.722;8.612;2022-08-25T14:57:59;31.30;33.70
5723;DHT22;2886;49.722;8.612;2022-08-25T15:00:25;31.20;33.80
5723;DHT22;2886;49.722;8.612;2022-08-25T15:02:50;31.10;34.20
5723;DHT22;2886;49.722;8.612;2022-08-25T15:05:21;31.10;34.00
5723;DHT22;2886;49.722;8.612;2022-08-25T15:07:49;31.00;34.20
5723;DHT22;2886;49.722;8.612;2022-08-25T15:10:33;31.00;34.40
5723;DHT22;2886;49.722;8.612;2022-08-25T15:12:59;31.00;34.70
5723;DHT22;2886;49.722;8.612;2022-08-25T15:15:25;31.00;34.80
5723;DHT22;2886;49.722;8.612;2022-08-25T15:17:53;30.90;34.80
5723;DHT22;2886;49.722;8.612;2022-08-25T15:20:19;30.90;35.30
5723;DHT22;2886;49.722;8.612;2022-08-25T15:22:45;30.80;34.80
5723;DHT22;2886;49.722;8.612;2022-08-25T15:25:12;30.90;35.70
5723;DHT22;2886;49.722;8.612;2022-08-25T15:27:39;30.90;35.60
5723;DHT22;2886;49.722;8.612;2022-08-25T15:30:05;31.00;35.00
5723;DHT22;2886;49.722;8.612;2022-08-25T15:32:31;31.20;34.50
5723;DHT22;2886;49.722;8.612;2022-08-25T15:34:57;31.40;33.40
5723;DHT22;2886;49.722;8.612;2022-08-25T15:37:24;31.70;33.10
5723;DHT22;2886;49.722;8.612;2022-08-25T15:39:50;32.00;32.50
5723;DHT22;2886;49.722;8.612;2022-08-25T15:42:15;32.20;32.00
5723;DHT22;2886;49.722;8.612;2022-08-25T15:44:42;32.50;31.80
5723;DHT22;2886;49.722;8.612;2022-08-25T15:47:08;32.60;31.80
5723;DHT22;2886;49.722;8.612;2022-08-25T15:49:34;32.60;32.10
5723;DHT22;2886;49.722;8.612;2022-08-25T15:52:00;32.60;32.10
5723;DHT22;2886;49.722;8.612;2022-08-25T15:54:27;32.60;31.80
5723;DHT22;2886;49.722;8.612;2022-08-25T15:56:55;32.60;31.90
5723;DHT22;2886;49.722;8.612;2022-08-25T15:59:20;32.40;32.20
5723;DHT22;2886;49.722;8.612;2022-08-25T16:01:46;32.20;32.60
5723;DHT22;2886;49.722;8.612;2022-08-25T16:04:13;32.20;32.80
5723;DHT22;2886;49.722;8.612;2022-08-25T16:06:39;32.40;32.30
5723;DHT22;2886;49.722;8.612;2022-08-25T16:09:05;32.30;32.80
5723;DHT22;2886;49.722;8.612;2022-08-25T16:11:32;32.40;32.80
5723;DHT22;2886;49.722;8.612;2022-08-25T16:13:59;32.40;32.80
5723;DHT22;2886;49.722;8.612;2022-08-25T16:16:27;32.30;32.80
5723;DHT22;2886;49.722;8.612;2022-08-25T16:18:54;32.20;32.90
5723;DHT22;2886;49.722;8.612;2022-08-25T16:21:26;32.20;33.00
5723;DHT22;2886;49.722;8.612;2022-08-25T16:23:53;32.20;33.00
5723;DHT22;2886;49.722;8.612;2022-08-25T16:26:20;32.20;33.20
5723;DHT22;2886;49.722;8.612;2022-08-25T16:28:45;32.20;33.20
5723;DHT22;2886;49.722;8.612;2022-08-25T16:31:13;32.10;33.30
5723;DHT22;2886;49.722;8.612;2022-08-25T16:33:39;31.90;33.50
5723;DHT22;2886;49.722;8.612;2022-08-25T16:36:15;31.70;34.10
5723;DHT22;2886;49.722;8.612;2022-08-25T16:38:42;31.60;34.20
5723;DHT22;2886;49.722;8.612;2022-08-25T16:41:10;31.40;34.60
5723;DHT22;2886;49.722;8.612;2022-08-25T16:43:36;31.30;34.80
5723;DHT22;2886;49.722;8.612;2022-08-25T16:46:05;31.20;35.00
5723;DHT22;2886;49.722;8.612;2022-08-25T16:48:32;31.10;35.20
5723;DHT22;2886;49.722;8.612;2022-08-25T16:50:58;31.10;35.50
5723;DHT22;2886;49.722;8.612;2022-08-25T16:53:24;31.00;35.50
5723;DHT22;2886;49.722;8.612;2022-08-25T16:56:08;30.90;35.40
5723;DHT22;2886;49.722;8.612;2022-08-25T16:58:35;30.80;35.50
5723;DHT22;2886;49.722;8.612;2022-08-25T17:01:06;30.80;35.80
5723;DHT22;2886;49.722;8.612;2022-08-25T17:03:33;30.70;35.60
5723;DHT22;2886;49.722;8.612;2022-08-25T17:05:59;30.70;35.80
5723;DHT22;2886;49.722;8.612;2022-08-25T17:08:25;30.70;35.90
5723;DHT22;2886;49.722;8.612;2022-08-25T17:11:08;30.70;35.90
5723;DHT22;2886;49.722;8.612;2022-08-25T17:13:36;30.60;35.60
5723;DHT22;2886;49.722;8.612;2022-08-25T17:16:03;30.50;36.20
5723;DHT22;2886;49.722;8.612;2022-08-25T17:18:29;30.50;36.20
5723;DHT22;2886;49.722;8.612;2022-08-25T17:21:06;30.40;36.30
5723;DHT22;2886;49.722;8.612;2022-08-25T17:23:34;30.40;35.70
5723;DHT22;2886;49.722;8.612;2022-08-25T17:26:00;30.50;36.00
5723;DHT22;2886;49.722;8.612;2022-08-25T17:28:26;30.50;36.20
5723;DHT22;2886;49.722;8.612;2022-08-25T17:30:52;30.50;36.20
5723;DHT22;2886;49.722;8.612;2022-08-25T17:33:19;30.40;36.10
5723;DHT22;2886;49.722;8.612;2022-08-25T17:35:47;30.30;36.20
5723;DHT22;2886;49.722;8.612;2022-08-25T17:38:15;30.20;36.20
5723;DHT22;2886;49.722;8.612;2022-08-25T17:40:41;30.20;36.40
5723;DHT22;2886;49.722;8.612;2022-08-25T17:43:08;30.20;36.60
5723;DHT22;2886;49.722;8.612;2022-08-25T17:45:34;30.20;36.50
5723;DHT22;2886;49.722;8.612;2022-08-25T17:48:00;30.10;36.70
5723;DHT22;2886;49.722;8.612;2022-08-25T17:50:26;30.00;36.80
5723;DHT22;2886;49.722;8.612;2022-08-25T17:52:52;29.90;36.80
5723;DHT22;2886;49.722;8.612;2022-08-25T17:55:19;30.00;37.00
5723;DHT22;2886;49.722;8.612;2022-08-25T17:57:50;30.00;37.00
5723;DHT22;2886;49.722;8.612;2022-08-25T18:00:19;30.00;36.90
5723;DHT22;2886;49.722;8.612;2022-08-25T18:02:45;30.00;36.90
5723;DHT22;2886;49.722;8.612;2022-08-25T18:05:11;30.00;37.20
5723;DHT22;2886;49.722;8.612;2022-08-25T18:07:37;29.90;37.20
5723;DHT22;2886;49.722;8.612;2022-08-25T18:10:04;29.80;37.50
5723;DHT22;2886;49.722;8.612;2022-08-25T18:12:30;29.60;37.90
5723;DHT22;2886;49.722;8.612;2022-08-25T18:14:55;29.40;38.30